Time;durP1;ratioP1;P1;durP2;ratioP2;P2;SDS_P1;SDS_P2;PMS_P1;PMS_P2;Temp;Humidity;BMP_temperature;BMP_pressure;BME280_temperature;BME280_humidity;BME280_pressure;Samples;Min_cycle;Max_cycle;Signal;HPM_P1;HPM_P2
2022/06/06 00:01:57;;;;;;;8.98;5.08;;;;;;;29.09;45.62;100639.94;1739020;82;21091;-67
2022/06/06 00:04:27;;;;;;;10.63;5.87;;;;;;;29.35;45.25;100648.22;1739571;82;21125;-67
2022/06/06 00:06:58;;;;;;;7.35;5.30;;;;;;;29.17;45.46;100642.52;1708143;82;21242;-67
2022/06/06 00:13:12;;;;;;;8.48;5.70;;;;;;;29.30;45.47;100644.00;1743268;82;21052;-67
2022/06/06 00:15:39;;;;;;;12.05;6.33;;;;;;;29.11;45.76;100649.38;1726772;82;21550;-67
2022/06/06 00:18:07;;;;;;;8.45;5.65;;;;;;;28.94;46.06;100650.06;1720514;83;21086;-68
2022/06/06 00:20:35;;;;;;;10.28;6.70;;;;;;;29.10;45.70;100649.55;1687497;83;21061;-67
2022/06/06 00:23:03;;;;;;;9.93;6.40;;;;;;;29.16;45.62;100653.63;1734017;82;21050;-68
2022/06/06 00:25:31;;;;;;;8.88;6.08;;;;;;;29.31;45.55;100650.12;1725164;82;21562;-68
2022/06/06 00:27:58;;;;;;;12.40;6.78;;;;;;;29.48;45.22;100652.02;1740266;82;21529;-66
2022/06/06 00:30:25;;;;;;;10.30;6.70;;;;;;;29.04;45.89;100652.44;1731213;82;21106;-67
2022/06/06 00:35:39;;;;;;;9.15;6.80;;;;;;;29.11;45.76;100659.16;1743847;82;21107;-67
2022/06/06 00:38:06;;;;;;;9.25;6.87;;;;;;;28.94;45.95;100663.31;1736253;81;21040;-66
2022/06/06 00:40:35;;;;;;;10.55;6.80;;;;;;;28.97;45.89;100660.80;1741325;82;21849;-67
2022/06/06 00:43:03;;;;;;;8.43;6.72;;;;;;;29.01;45.88;100658.60;1722122;83;21118;-67
2022/06/06 00:45:37;;;;;;;8.58;6.97;;;;;;;28.87;46.05;100661.58;1720470;82;21034;-66
2022/06/06 00:48:21;;;;;;;10.40;7.58;;;;;;;28.68;46.46;100662.97;1707557;83;21087;-67
2022/06/06 00:51:04;;;;;;;12.47;7.67;;;;;;;28.38;46.73;100661.07;1705607;83;21488;-67
2022/06/06 00:53:48;;;;;;;10.72;7.58;;;;;;;28.43;46.64;100660.55;1694935;82;21102;-67
2022/06/06 00:56:39;;;;;;;11.83;7.90;;;;;;;28.63;46.22;100659.55;1699006;83;21056;-68
2022/06/06 00:59:10;;;;;;;13.18;8.33;;;;;;;28.68;46.16;100658.48;1652711;84;21009;-67
2022/06/06 01:01:39;;;;;;;15.05;8.40;;;;;;;28.70;46.03;100653.02;1693057;83;21071;-67
2022/06/06 01:04:09;;;;;;;13.13;8.08;;;;;;;28.46;46.18;100651.41;1734868;82;20996;-67
2022/06/06 01:06:41;;;;;;;12.58;8.33;;;;;;;28.33;46.31;100648.08;1697344;83;21436;-67
2022/06/06 01:09:09;;;;;;;12.60;7.47;;;;;;;28.37;46.46;100649.36;1736496;82;21070;-66
2022/06/06 01:11:41;;;;;;;11.30;7.55;;;;;;;28.34;46.58;100644.41;1729060;81;21044;-67
2022/06/06 01:14:12;;;;;;;9.70;6.85;;;;;;;27.98;46.83;100653.00;1710571;83;21008;-67
2022/06/06 01:17:12;;;;;;;12.55;7.22;;;;;;;28.32;46.58;100644.59;1711892;83;21015;-67
2022/06/06 01:20:10;;;;;;;10.28;6.10;;;;;;;28.29;46.70;100650.26;1674879;84;21106;-67
2022/06/06 01:22:45;;;;;;;9.05;6.70;;;;;;;28.29;46.34;100647.61;1740088;82;21492;-67
2022/06/06 01:25:29;;;;;;;10.88;6.40;;;;;;;28.10;46.92;100654.25;1722399;82;21027;-67
2022/06/06 01:28:36;;;;;;;10.53;6.45;;;;;;;28.23;46.84;100658.11;1700990;83;21075;-66
2022/06/06 01:31:08;;;;;;;11.95;6.33;;;;;;;28.31;46.81;100656.70;1742991;81;21102;-68
2022/06/06 01:33:52;;;;;;;9.75;6.55;;;;;;;28.23;46.82;100658.92;1741143;82;21086;-68
2022/06/06 01:36:23;;;;;;;11.65;6.67;;;;;;;28.51;46.47;100655.20;1712649;82;21504;-67
2022/06/06 01:38:50;;;;;;;13.10;6.90;;;;;;;28.41;46.67;100657.74;1739417;82;21515;-67
2022/06/06 01:41:32;;;;;;;9.60;6.90;;;;;;;28.21;46.96;100661.44;1739510;82;21055;-67
2022/06/06 01:44:27;;;;;;;9.85;6.15;;;;;;;28.27;46.92;100667.33;1736440;82;21036;-66
2022/06/06 01:46:58;;;;;;;9.45;6.67;;;;;;;28.71;46.26;100664.76;1712593;81;21601;-67
2022/06/06 01:49:27;;;;;;;12.55;6.83;;;;;;;28.60;46.52;100666.52;1738641;82;21035;-67
2022/06/06 01:52:04;;;;;;;8.33;6.60;;;;;;;28.64;46.48;100657.20;1737782;81;21074;-67
2022/06/06 01:54:31;;;;;;;14.83;7.50;;;;;;;28.46;46.80;100660.17;1738308;82;21484;-67
2022/06/06 01:57:02;;;;;;;13.62;7.58;;;;;;;28.56;46.61;100665.23;1717033;83;21004;-67
2022/06/06 01:59:30;;;;;;;13.05;7.30;;;;;;;28.59;46.46;100665.38;1703419;83;21074;-67
2022/06/06 02:01:57;;;;;;;15.23;7.65;;;;;;;28.77;46.36;100676.42;1725822;82;21040;-66
2022/06/06 02:04:25;;;;;;;10.63;7.62;;;;;;;28.74;46.92;100675.48;1720551;82;21036;-66
2022/06/06 02:06:52;;;;;;;11.38;7.22;;;;;;;28.60;47.36;100681.60;1723386;83;21051;-67
2022/06/06 02:09:20;;;;;;;12.95;7.55;;;;;;;28.31;48.22;100688.47;1709966;82;21032;-67
2022/06/06 02:11:48;;;;;;;14.07;8.25;;;;;;;28.19;48.60;100688.58;1723858;83;21028;-67
2022/06/06 02:14:15;;;;;;;15.00;8.88;;;;;;;28.05;48.42;100692.83;1736140;82;21082;-67
2022/06/06 02:16:42;;;;;;;12.37;8.35;;;;;;;27.56;49.60;100700.56;1741194;82;21048;-67
2022/06/06 02:19:11;;;;;;;16.00;8.18;;;;;;;27.84;49.61;100703.53;1733549;82;21050;-66
2022/06/06 02:21:42;;;;;;;18.75;8.75;;;;;;;27.58;49.89;100709.16;1730267;82;21504;-66
2022/06/06 02:24:09;;;;;;;16.35;8.95;;;;;;;27.52;50.30;100710.66;1735874;81;21043;-66
2022/06/06 02:26:36;;;;;;;15.38;9.40;;;;;;;27.51;50.18;100707.68;1741179;82;21023;-66
2022/06/06 02:29:05;;;;;;;19.70;9.65;;;;;;;27.43;50.17;100709.05;1744042;82;21047;-67
2022/06/06 02:31:37;;;;;;;14.00;9.28;;;;;;;27.45;50.55;100712.84;1743809;82;21004;-66
2022/06/06 02:34:01;;;;;;;17.30;9.63;;;;;;;27.73;49.88;100717.15;1743326;82;21079;-65
2022/06/06 02:36:28;;;;;;;16.15;9.95;;;;;;;27.91;49.47;100712.94;1738696;82;21492;-67
2022/06/06 02:38:55;;;;;;;19.95;10.23;;;;;;;27.98;49.62;100711.21;1725896;82;21125;-67
2022/06/06 02:41:24;;;;;;;18.52;11.20;;;;;;;27.95;49.64;100714.23;1713612;83;21048;-66
2022/06/06 02:43:51;;;;;;;18.45;10.98;;;;;;;27.90;49.54;100712.13;1722066;82;21056;-67
2022/06/06 02:46:18;;;;;;;18.50;11.25;;;;;;;28.00;49.98;100719.80;1727625;82;21134;-67
2022/06/06 02:48:45;;;;;;;17.45;10.53;;;;;;;27.89;49.63;100714.94;1716019;82;21082;-68
2022/06/06 02:51:12;;;;;;;14.73;8.38;;;;;;;28.15;49.18;100713.25;1731124;82;21113;-67
2022/06/06 02:53:40;;;;;;;15.98;8.05;;;;;;;28.34;48.22;100720.68;1722242;83;21067;-67
2022/06/06 02:56:07;;;;;;;9.78;7.17;;;;;;;28.05;48.46;100720.61;1723821;82;21039;-67
2022/06/06 02:58:35;;;;;;;9.35;6.92;;;;;;;27.89;48.64;100728.98;1740225;81;21876;-67
2022/06/06 03:01:06;;;;;;;8.78;6.62;;;;;;;28.23;48.47;100725.61;1718569;82;21519;-67
2022/06/06 03:03:38;;;;;;;10.80;6.33;;;;;;;28.04;48.62;100728.21;1721681;83;21030;-67
2022/06/06 03:06:15;;;;;;;11.93;6.87;;;;;;;28.45;48.09;100719.95;1721172;83;21546;-68
2022/06/06 03:09:02;;;;;;;10.55;6.55;;;;;;;28.23;48.26;100722.96;1727799;82;21059;-68
2022/06/06 03:11:56;;;;;;;11.33;7.10;;;;;;;28.37;48.04;100722.17;1721221;83;21059;-68
2022/06/06 03:14:52;;;;;;;13.13;7.70;;;;;;;28.02;48.40;100719.16;1727574;82;21032;-67
2022/06/06 03:21:02;;;;;;;10.63;6.70;;;;;;;28.84;48.05;100713.12;1741585;82;20996;-68
2022/06/06 03:23:58;;;;;;;10.28;6.35;;;;;;;28.84;48.04;100715.77;1719119;82;21020;-67
2022/06/06 03:26:42;;;;;;;11.10;6.40;;;;;;;28.50;48.48;100723.72;1717570;81;21094;-70
2022/06/06 03:29:40;;;;;;;10.75;5.95;;;;;;;28.77;48.36;100724.11;1732030;82;21123;-69
2022/06/06 03:32:24;;;;;;;8.63;6.15;;;;;;;28.61;48.71;100725.61;1728408;81;21066;-67
2022/06/06 03:35:20;;;;;;;8.23;5.75;;;;;;;29.36;47.50;100726.78;1729046;82;21380;-66
2022/06/06 03:38:19;;;;;;;;;;;;;;;29.49;47.29;100728.76;1729795;82;21039;-66
2022/06/06 03:41:14;;;;;;;8.48;4.87;;;;;;;29.68;47.10;100730.48;1713850;83;20527;-66
2022/06/06 03:43:57;;;;;;;9.05;4.72;;;;;;;29.70;46.95;100731.94;1742513;82;21087;-67
2022/06/06 03:46:36;;;;;;;9.00;5.33;;;;;;;29.24;47.63;100736.22;1718596;83;21558;-67
2022/06/06 03:49:23;;;;;;;8.78;4.70;;;;;;;29.42;47.28;100746.92;1706528;83;21035;-68
2022/06/06 03:52:29;;;;;;;7.40;4.78;;;;;;;29.41;47.69;100740.80;1740644;82;21047;-66
2022/06/06 03:55:07;;;;;;;6.60;4.25;;;;;;;29.26;47.52;100746.14;1700830;83;21060;-67
2022/06/06 03:57:36;;;;;;;7.53;4.50;;;;;;;28.93;48.09;100739.86;1739599;82;21051;-67
2022/06/06 04:00:11;;;;;;;7.28;4.50;;;;;;;29.30;47.58;100747.41;1706747;82;21011;-67
2022/06/06 04:02:42;;;;;;;8.40;4.70;;;;;;;29.31;47.49;100736.30;1741144;82;21032;-66
2022/06/06 04:05:16;;;;;;;7.95;4.83;;;;;;;29.75;47.33;100733.56;1729434;82;21007;-68
2022/06/06 04:07:44;;;;;;;9.23;4.58;;;;;;;29.35;47.44;100738.89;1720724;82;21061;-67
2022/06/06 04:10:13;;;;;;;6.53;4.40;;;;;;;29.07;48.21;100732.89;1706612;83;21110;-67
2022/06/06 04:13:01;;;;;;;5.08;4.40;;;;;;;29.10;47.61;100733.86;1738194;82;21127;-67
2022/06/06 04:15:38;;;;;;;6.53;4.05;;;;;;;29.34;47.15;100735.42;1717773;82;21606;-69
2022/06/06 04:18:26;;;;;;;5.42;4.25;;;;;;;29.26;47.30;100736.86;1714170;82;21085;-67
2022/06/06 04:21:11;;;;;;;6.72;4.20;;;;;;;29.40;47.62;100739.66;1706051;82;21054;-66
2022/06/06 04:23:59;;;;;;;6.10;4.20;;;;;;;29.49;47.89;100737.23;1719055;82;21032;-67
2022/06/06 04:26:40;;;;;;;10.00;4.58;;;;;;;29.74;47.53;100740.38;1719353;83;21524;-68
2022/06/06 04:29:51;;;;;;;5.12;4.15;;;;;;;29.15;47.86;100738.13;1727838;82;21114;-67
2022/06/06 04:32:44;;;;;;;8.63;4.45;;;;;;;29.26;47.67;100750.59;1747180;82;21059;-67
2022/06/06 04:35:44;;;;;;;5.83;4.37;;;;;;;29.35;46.98;100753.48;1695764;82;21476;-67
2022/06/06 04:38:25;;;;;;;8.70;4.00;;;;;;;29.34;47.12;100754.50;1742537;82;21147;-67
2022/06/06 04:41:22;;;;;;;6.58;3.80;;;;;;;28.95;47.54;100749.78;1741419;82;21039;-67
2022/06/06 04:44:21;;;;;;;5.78;3.70;;;;;;;29.05;47.04;100768.55;1726430;81;21012;-67
2022/06/06 04:47:17;;;;;;;7.65;3.90;;;;;;;29.28;46.40;100757.38;1737133;81;21610;-66
2022/06/06 04:49:46;;;;;;;7.30;3.67;;;;;;;29.39;46.69;100764.03;1735859;82;21550;-67
2022/06/06 04:52:15;;;;;;;6.05;3.80;;;;;;;29.78;45.86;100761.55;1720575;83;21081;-66
2022/06/06 04:54:45;;;;;;;4.30;3.30;;;;;;;30.15;45.89;100760.98;1716850;83;21027;-67
2022/06/06 04:57:15;;;;;;;5.33;3.10;;;;;;;29.41;45.92;100764.67;1732744;82;21065;-67
2022/06/06 04:59:45;;;;;;;5.15;3.60;;;;;;;29.56;45.53;100759.33;1732960;82;21048;-66
2022/06/06 05:02:15;;;;;;;5.28;4.00;;;;;;;29.66;46.28;100770.46;1737948;82;21180;-67
2022/06/06 05:04:42;;;;;;;5.97;3.40;;;;;;;30.01;46.08;100765.86;1733199;82;21026;-67
2022/06/06 05:07:32;;;;;;;5.22;3.15;;;;;;;30.08;46.25;100778.19;1712127;82;21649;-68
2022/06/06 05:10:24;;;;;;;6.80;3.58;;;;;;;29.75;46.04;100772.04;1739975;82;21075;-67
2022/06/06 05:13:14;;;;;;;4.95;3.40;;;;;;;29.86;46.14;100778.68;1741616;82;21039;-67
2022/06/06 05:16:39;;;;;;;4.05;3.37;;;;;;;29.66;46.02;100784.24;1746815;82;21512;-68
2022/06/06 05:19:42;;;;;;;6.05;3.60;;;;;;;29.91;45.68;100790.89;1742608;82;21031;-67
2022/06/06 05:22:35;;;;;;;3.83;3.35;;;;;;;30.56;45.19;100801.55;1743876;82;21063;-67
2022/06/06 05:25:17;;;;;;;4.03;3.37;;;;;;;30.29;45.14;100789.34;1735724;82;21052;-68
2022/06/06 05:28:06;;;;;;;4.83;3.52;;;;;;;30.39;44.32;100784.22;1739048;81;21051;-66
2022/06/06 05:30:47;;;;;;;4.10;2.75;;;;;;;30.67;45.00;100790.38;1727412;82;21062;-66
2022/06/06 05:33:37;;;;;;;5.00;3.20;;;;;;;29.85;45.50;100793.48;1724209;83;21038;-67
2022/06/06 05:36:26;;;;;;;8.98;3.27;;;;;;;29.71;45.28;100795.98;1715689;83;21055;-67
2022/06/06 05:39:32;;;;;;;4.35;3.20;;;;;;;30.39;44.72;100799.64;1732914;81;21090;-67
2022/06/06 05:42:37;;;;;;;5.65;3.35;;;;;;;29.76;45.01;100813.98;1718395;83;21094;-67
2022/06/06 05:45:22;;;;;;;;;;;;;;;29.38;46.23;100799.53;1735244;82;21535;-67
2022/06/06 05:48:13;;;;;;;2.98;2.75;;;;;;;29.74;45.60;100793.45;1742072;82;20386;-69
2022/06/06 05:51:12;;;;;;;4.53;3.52;;;;;;;29.60;45.92;100802.23;1719535;82;21035;-67
2022/06/06 05:54:25;;;;;;;7.53;3.35;;;;;;;29.92;45.34;100803.66;1705682;82;21023;-67
2022/06/06 05:57:29;;;;;;;5.30;3.12;;;;;;;30.59;45.07;100801.66;1741741;82;21046;-65
2022/06/06 06:00:16;;;;;;;4.95;2.92;;;;;;;30.57;44.42;100811.66;1734052;82;21106;-66
2022/06/06 06:03:41;;;;;;;4.33;3.20;;;;;;;30.68;44.46;100814.62;1726055;82;21032;-67
2022/06/06 06:06:26;;;;;;;4.72;3.42;;;;;;;31.30;43.96;100818.30;1725324;82;21511;-66
2022/06/06 06:09:11;;;;;;;5.12;3.55;;;;;;;30.73;43.95;100823.33;1739232;81;21166;-66
2022/06/06 06:12:10;;;;;;;5.00;3.33;;;;;;;30.29;44.52;100825.67;1685302;82;21520;-66
2022/06/06 06:14:57;;;;;;;4.67;3.40;;;;;;;30.59;44.14;100829.56;1733210;82;21018;-66
2022/06/06 06:17:28;;;;;;;5.70;3.40;;;;;;;30.72;44.27;100837.14;1686057;83;21063;-67
2022/06/06 06:20:12;;;;;;;4.08;3.72;;;;;;;31.13;43.50;100846.25;1715351;83;21019;-67
2022/06/06 06:22:59;;;;;;;7.15;3.10;;;;;;;31.28;43.46;100856.25;1722605;83;21030;-67
2022/06/06 06:25:27;;;;;;;4.87;3.50;;;;;;;31.13;43.30;100867.00;1737267;82;21058;-66
2022/06/06 06:27:59;;;;;;;5.47;3.42;;;;;;;31.26;43.16;100867.59;1719403;83;21108;-68
2022/06/06 06:30:31;;;;;;;5.60;3.20;;;;;;;32.00;42.54;100871.49;1717958;83;21034;-66
2022/06/06 06:33:16;;;;;;;9.60;3.50;;;;;;;31.91;41.78;100877.45;1720909;82;21064;-66
2022/06/06 06:35:55;;;;;;;6.83;3.20;;;;;;;32.10;42.07;100875.92;1721474;83;21094;-66
2022/06/06 06:38:37;;;;;;;3.60;3.30;;;;;;;32.03;42.07;100870.27;1717305;82;21051;-67
2022/06/06 06:41:18;;;;;;;6.10;3.62;;;;;;;32.14;41.84;100870.50;1720231;83;21217;-66
2022/06/06 06:44:11;;;;;;;6.22;3.60;;;;;;;32.05;41.79;100869.03;1704009;83;21087;-67
2022/06/06 06:46:47;;;;;;;4.33;3.40;;;;;;;32.26;41.15;100874.73;1727273;82;21064;-66
2022/06/06 06:49:43;;;;;;;3.98;3.47;;;;;;;31.75;41.53;100880.47;1737425;82;21004;-66
2022/06/06 06:52:42;;;;;;;4.95;3.67;;;;;;;31.73;41.08;100879.84;1734398;82;21579;-67
2022/06/06 06:55:36;;;;;;;5.37;3.40;;;;;;;31.82;41.49;100878.66;1736357;82;21061;-67
2022/06/06 06:58:20;;;;;;;5.87;3.50;;;;;;;32.42;41.53;100874.03;1731334;82;21036;-67
2022/06/06 07:01:00;;;;;;;5.22;3.55;;;;;;;32.37;41.09;100877.83;1739444;82;21040;-68
2022/06/06 07:10:26;;;;;;;4.47;3.67;;;;;;;33.18;41.29;100867.52;1708664;83;21095;-67
2022/06/06 07:13:01;;;;;;;8.83;4.33;;;;;;;33.53;40.00;100861.36;1732269;82;21622;-66
2022/06/06 07:15:47;;;;;;;4.10;3.50;;;;;;;33.77;40.15;100867.86;1687456;83;21016;-67
2022/06/06 07:18:16;;;;;;;;;;;;;;;33.23;39.98;100866.36;1739625;82;21024;-68
2022/06/06 07:20:46;;;;;;;5.97;3.62;;;;;;;33.02;39.76;100862.08;1713884;83;20110;-67
2022/06/06 07:23:15;;;;;;;5.33;3.27;;;;;;;32.85;39.48;100871.02;1738231;82;21056;-67
2022/06/06 07:25:48;;;;;;;3.45;3.08;;;;;;;33.46;38.60;100856.57;1708344;82;21596;-67
2022/06/06 07:28:19;;;;;;;4.87;3.50;;;;;;;34.16;37.96;100861.22;1730038;82;21578;-68
2022/06/06 07:31:16;;;;;;;5.10;3.20;;;;;;;34.25;38.12;100866.09;1710004;82;21492;-68
2022/06/06 07:34:10;;;;;;;4.17;2.95;;;;;;;34.74;38.18;100862.36;1731101;81;21015;-68
2022/06/06 07:37:20;;;;;;;5.67;3.20;;;;;;;34.77;37.77;100859.23;1724973;83;21510;-68
2022/06/06 07:40:05;;;;;;;4.33;2.90;;;;;;;34.39;38.42;100857.97;1717061;83;21788;-68
2022/06/06 07:42:56;;;;;;;4.85;2.65;;;;;;;34.59;36.93;100851.13;1707575;82;21114;-68
2022/06/06 07:45:51;;;;;;;14.33;2.85;;;;;;;34.22;35.69;100858.50;1718286;82;21078;-66
2022/06/06 07:48:57;;;;;;;3.85;2.52;;;;;;;34.51;36.13;100854.40;1735925;82;21040;-68
2022/06/06 07:51:32;;;;;;;2.87;2.33;;;;;;;33.86;35.76;100849.24;1703645;83;21012;-67
2022/06/06 07:54:11;;;;;;;3.83;1.98;;;;;;;34.43;35.93;100843.14;1706345;83;21078;-66
2022/06/06 07:57:18;;;;;;;3.25;1.90;;;;;;;34.42;35.45;100845.52;1744424;81;21071;-67
2022/06/06 08:00:03;;;;;;;2.00;1.80;;;;;;;34.70;34.81;100846.45;1712207;82;21038;-67
2022/06/06 08:02:59;;;;;;;5.22;1.62;;;;;;;35.02;34.73;100857.07;1737779;81;21028;-69
2022/06/06 08:05:41;;;;;;;2.10;1.87;;;;;;;33.56;35.04;100848.94;1741538;82;21500;-67
2022/06/06 08:08:51;;;;;;;3.27;1.70;;;;;;;34.62;34.68;100842.17;1734793;82;21077;-68
2022/06/06 08:12:16;;;;;;;2.17;1.45;;;;;;;33.43;35.54;100856.98;1736650;82;21396;-67
2022/06/06 08:14:58;;;;;;;3.55;1.67;;;;;;;34.15;34.43;100853.73;1728285;81;21043;-68
2022/06/06 08:17:55;;;;;;;2.85;1.80;;;;;;;33.36;34.80;100856.20;1725031;82;21035;-67
2022/06/06 08:20:49;;;;;;;2.00;1.50;;;;;;;33.36;34.80;100856.20;1724580;82;21044;-66
2022/06/06 08:23:18;;;;;;;1.60;1.40;;;;;;;33.43;34.37;100848.97;1711897;82;21102;-67
2022/06/06 08:25:48;;;;;;;2.70;1.50;;;;;;;33.43;34.89;100851.12;1712588;82;21034;-67
2022/06/06 08:28:17;;;;;;;3.87;1.65;;;;;;;32.99;34.78;100854.47;1697514;83;21007;-67
2022/06/06 08:30:46;;;;;;;3.10;1.72;;;;;;;33.89;34.39;100849.33;1736460;82;21502;-67
2022/06/06 08:33:13;;;;;;;2.47;1.75;;;;;;;34.30;34.38;100850.74;1714476;82;21007;-67
2022/06/06 08:36:16;;;;;;;2.58;1.52;;;;;;;33.99;34.43;100853.69;1714321;82;21027;-68
2022/06/06 08:38:57;;;;;;;3.25;1.65;;;;;;;34.45;34.18;100850.42;1722222;81;21052;-67
2022/06/06 08:41:59;;;;;;;2.67;1.65;;;;;;;33.67;33.83;100845.62;1731294;81;21005;-68
2022/06/06 08:44:31;;;;;;;2.08;1.60;;;;;;;33.67;33.83;100845.62;1744785;81;21040;-69
2022/06/06 08:47:12;;;;;;;1.75;1.65;;;;;;;33.88;32.59;100851.68;1728705;82;20996;-67
2022/06/06 08:53:23;;;;;;;3.60;1.70;;;;;;;34.01;34.02;100854.81;1746761;81;21047;-68
2022/06/06 08:56:24;;;;;;;2.47;1.80;;;;;;;34.08;34.18;100850.23;1746076;81;21039;-66
2022/06/06 08:59:20;;;;;;;2.08;1.67;;;;;;;34.56;33.86;100848.91;1737997;81;21003;-68
2022/06/06 09:02:21;;;;;;;2.20;1.60;;;;;;;33.97;33.57;100853.08;1743902;81;21015;-69
2022/06/06 09:05:33;;;;;;;2.75;1.62;;;;;;;33.85;34.70;100850.78;1732265;81;20972;-68
2022/06/06 09:08:15;;;;;;;3.27;1.70;;;;;;;34.40;34.13;100846.26;1730474;81;20967;-68
2022/06/06 09:11:31;;;;;;;1.50;1.40;;;;;;;34.24;34.01;100851.08;1734521;82;21735;-68
2022/06/06 09:14:26;;;;;;;2.77;1.32;;;;;;;34.85;33.16;100854.13;1717626;81;20985;-70
2022/06/06 09:17:19;;;;;;;2.47;1.32;;;;;;;34.85;33.16;100854.13;1731928;81;21583;-72
2022/06/06 09:20:20;;;;;;;1.47;1.37;;;;;;;34.88;33.01;100843.81;1733719;82;21772;-69
2022/06/06 09:23:08;;;;;;;3.62;1.60;;;;;;;34.97;31.84;100848.35;1742970;80;21078;-68
2022/06/06 09:26:00;;;;;;;4.83;1.50;;;;;;;35.04;32.56;100832.25;1687793;82;20996;-67
2022/06/06 09:29:12;;;;;;;3.52;1.70;;;;;;;35.25;32.63;100837.17;1728495;81;21056;-67
2022/06/06 09:32:26;;;;;;;4.45;1.60;;;;;;;34.42;32.86;100842.33;1745348;81;21022;-67
2022/06/06 09:35:10;;;;;;;4.30;1.40;;;;;;;34.39;32.90;100840.10;1740789;81;21125;-67
2022/06/06 09:38:18;;;;;;;1.45;1.35;;;;;;;34.25;32.22;100840.71;1733942;82;21491;-69
2022/06/06 09:41:10;;;;;;;1.35;1.20;;;;;;;34.79;31.95;100833.09;1679986;84;21124;-68
2022/06/06 09:44:14;;;;;;;4.20;1.25;;;;;;;34.81;31.73;100832.88;1727283;81;21034;-67
2022/06/06 09:46:50;;;;;;;;;;;;;;;35.58;30.33;100832.47;1745352;82;21004;-68
2022/06/06 09:50:00;;;;;;;1.37;1.27;;;;;;;34.89;30.12;100841.42;1742314;81;20107;-67
2022/06/06 09:52:47;;;;;;;2.20;1.20;;;;;;;34.76;31.66;100828.20;1734768;81;21039;-67
2022/06/06 09:59:45;;;;;;;1.60;1.50;;;;;;;34.45;30.62;100833.05;1742282;81;21086;-68
2022/06/06 10:02:36;;;;;;;1.30;1.20;;;;;;;35.41;30.15;100829.59;1739349;81;21091;-68
2022/06/06 10:05:24;;;;;;;3.87;1.72;;;;;;;34.93;30.08;100823.61;1743824;82;21455;-66
2022/06/06 10:08:18;;;;;;;1.92;1.20;;;;;;;35.18;30.13;100823.07;1727349;81;21051;-68
2022/06/06 10:11:19;;;;;;;1.67;1.20;;;;;;;35.45;29.38;100832.93;1721467;81;21048;-68
2022/06/06 10:14:12;;;;;;;5.28;1.45;;;;;;;34.71;29.88;100828.02;1722758;81;21047;-70
2022/06/06 10:16:57;;;;;;;3.02;1.50;;;;;;;34.90;30.08;100829.70;1698337;81;21673;-68
2022/06/06 10:19:38;;;;;;;2.50;1.20;;;;;;;34.86;29.49;100819.15;1707243;83;21020;-68
2022/06/06 10:22:19;;;;;;;2.02;1.20;;;;;;;34.57;30.68;100822.47;1727754;81;21058;-67
2022/06/06 10:25:03;;;;;;;1.27;1.17;;;;;;;34.79;29.08;100813.03;1747328;81;21530;-70
2022/06/06 10:27:53;;;;;;;3.90;1.30;;;;;;;34.46;29.04;100811.45;1740419;80;21067;-69
2022/06/06 10:30:28;;;;;;;4.85;1.47;;;;;;;34.70;29.88;100811.17;1740916;81;20968;-69
2022/06/06 10:33:34;;;;;;;1.42;1.10;;;;;;;35.28;31.52;100809.14;1739305;81;20989;-67
2022/06/06 10:36:36;;;;;;;3.62;1.20;;;;;;;35.24;29.58;100797.25;1739765;81;21532;-68
2022/06/06 10:39:53;;;;;;;4.12;1.22;;;;;;;35.29;30.02;100802.23;1741704;81;21015;-67
2022/06/06 10:42:42;;;;;;;3.58;1.50;;;;;;;35.42;30.17;100809.27;1708256;82;21486;-68
2022/06/06 10:45:20;;;;;;;3.08;1.37;;;;;;;35.81;29.34;100802.30;1732375;82;21032;-67
2022/06/06 10:48:09;;;;;;;2.52;1.27;;;;;;;35.96;29.70;100805.39;1730044;81;21102;-67
2022/06/06 10:54:23;;;;;;;1.90;1.22;;;;;;;35.28;29.11;100793.92;1729852;81;21054;-67
2022/06/06 10:57:20;;;;;;;1.85;1.40;;;;;;;35.65;29.80;100808.61;1761375;81;21023;-69
2022/06/06 11:00:29;;;;;;;4.12;1.50;;;;;;;34.91;30.04;100801.90;1749980;81;20987;-67
2022/06/06 11:03:22;;;;;;;2.35;1.37;;;;;;;35.18;29.68;100807.02;1752666;81;21073;-67
2022/06/06 11:06:18;;;;;;;1.30;1.20;;;;;;;35.36;30.08;100796.79;1746174;81;20999;-70
2022/06/06 11:09:09;;;;;;;1.85;1.30;;;;;;;35.51;29.90;100805.78;1705612;82;21025;-68
2022/06/06 11:12:04;;;;;;;1.27;1.17;;;;;;;35.73;29.34;100795.94;1745665;81;21638;-68
2022/06/06 11:14:39;;;;;;;3.83;1.40;;;;;;;35.43;29.96;100787.36;1751130;81;21020;-67
2022/06/06 11:17:55;;;;;;;2.33;1.35;;;;;;;35.63;29.61;100785.23;1748220;81;20977;-68
2022/06/06 11:20:59;;;;;;;1.57;1.25;;;;;;;35.80;30.34;100786.77;1668874;85;21068;-67
2022/06/06 11:23:37;;;;;;;8.55;1.87;;;;;;;35.43;30.45;100777.46;1663831;84;21088;-68
2022/06/06 11:26:51;;;;;;;2.40;1.45;;;;;;;35.83;30.69;100776.95;1716092;81;21906;-68
2022/06/06 11:29:42;;;;;;;4.58;1.40;;;;;;;36.10;30.71;100768.50;1737898;80;21361;-68
2022/06/06 11:32:24;;;;;;;1.40;1.10;;;;;;;36.17;30.39;100769.75;1693166;82;21139;-69
2022/06/06 11:35:15;;;;;;;3.33;1.42;;;;;;;35.99;29.75;100769.28;1737239;81;21066;-68
2022/06/06 11:37:53;;;;;;;3.05;1.40;;;;;;;36.04;31.69;100782.29;1754540;81;21086;-68
2022/06/06 11:40:53;;;;;;;1.40;1.20;;;;;;;36.15;29.91;100782.03;1756590;81;21070;-67
2022/06/06 11:43:34;;;;;;;2.75;1.40;;;;;;;36.32;30.58;100771.47;1717165;82;21046;-68
2022/06/06 11:46:23;;;;;;;3.75;1.30;;;;;;;36.72;29.20;100764.59;1751371;81;21043;-68
2022/06/06 11:49:17;;;;;;;4.58;1.52;;;;;;;36.21;29.37;100763.69;1752288;81;21069;-68
2022/06/06 11:52:16;;;;;;;3.12;1.40;;;;;;;36.46;29.23;100764.02;1757498;81;21511;-69
2022/06/06 11:55:09;;;;;;;1.98;1.40;;;;;;;35.54;30.04;100769.70;1746187;81;21023;-68
2022/06/06 11:57:59;;;;;;;2.90;1.37;;;;;;;35.96;30.04;100766.55;1728654;82;21019;-68
2022/06/06 12:00:42;;;;;;;2.35;1.35;;;;;;;36.54;30.15;100755.62;1757760;81;21030;-69
2022/06/06 12:03:19;;;;;;;4.03;1.30;;;;;;;36.44;29.37;100761.56;1757003;81;20976;-70
2022/06/06 12:06:16;;;;;;;1.85;1.40;;;;;;;36.03;29.50;100757.89;1752508;81;21061;-67
2022/06/06 12:09:21;;;;;;;2.50;1.50;;;;;;;36.67;30.02;100747.34;1760606;81;21531;-68
2022/06/06 12:12:10;;;;;;;3.65;1.45;;;;;;;36.65;28.94;100754.00;1752742;81;21053;-68
2022/06/06 12:15:18;;;;;;;2.42;1.50;;;;;;;36.49;29.52;100761.66;1752783;81;21066;-68
2022/06/06 12:18:21;;;;;;;3.05;1.50;;;;;;;36.67;29.63;100759.41;1753700;81;21057;-67
2022/06/06 12:21:28;;;;;;;2.92;1.42;;;;;;;36.97;29.20;100758.97;1731337;81;21058;-67
2022/06/06 12:24:16;;;;;;;2.52;1.40;;;;;;;37.33;29.29;100761.87;1751365;81;21681;-68
2022/06/06 12:26:59;;;;;;;2.20;1.30;;;;;;;36.64;29.00;100759.89;1747495;81;21526;-67
2022/06/06 12:29:40;;;;;;;2.77;1.40;;;;;;;36.67;29.78;100762.63;1736869;81;21024;-69
2022/06/06 12:32:19;;;;;;;2.15;1.30;;;;;;;37.14;29.67;100757.72;1752153;81;21022;-67
2022/06/06 12:35:09;;;;;;;3.83;1.70;;;;;;;36.54;28.94;100766.34;1727749;81;21031;-69
2022/06/06 12:38:18;;;;;;;2.02;1.30;;;;;;;37.25;29.06;100767.62;1744339;81;21039;-67
2022/06/06 12:40:56;;;;;;;2.65;1.47;;;;;;;37.84;28.36;100761.47;1751498;81;21114;-66
2022/06/06 12:43:43;;;;;;;3.00;1.32;;;;;;;37.14;28.55;100762.56;1750758;81;21030;-66
2022/06/06 12:46:31;;;;;;;3.22;1.40;;;;;;;36.76;29.27;100761.73;1751076;81;21083;-67
2022/06/06 12:49:47;;;;;;;3.05;1.57;;;;;;;37.64;28.25;100757.09;1733262;81;21054;-69
2022/06/06 12:52:32;;;;;;;3.08;1.55;;;;;;;37.52;28.40;100763.02;1756197;80;21050;-67
2022/06/06 12:57:58;;;;;;;5.47;1.32;;;;;;;37.95;28.68;100747.66;1752742;81;21071;-67
2022/06/06 13:03:57;;;;;;;1.67;1.30;;;;;;;36.61;28.64;100751.47;1752516;81;21082;-67
2022/06/06 13:06:44;;;;;;;2.47;1.40;;;;;;;36.57;29.05;100754.33;1751603;81;21094;-69
2022/06/06 13:09:52;;;;;;;3.00;1.67;;;;;;;36.18;29.99;100756.66;1672022;84;21128;-74
2022/06/06 13:12:43;;;;;;;1.87;1.40;;;;;;;36.12;28.82;100750.33;1715807;81;21094;-68
2022/06/06 13:15:34;;;;;;;2.42;1.40;;;;;;;37.14;28.70;100745.64;1743888;82;21463;-67
2022/06/06 13:18:32;;;;;;;2.70;1.50;;;;;;;36.31;28.56;100748.38;1708581;83;21074;-67
2022/06/06 13:21:26;;;;;;;3.58;1.40;;;;;;;36.76;29.76;100746.98;1748757;81;21031;-68